Baudette International Airport Baudette US
ICAO: KBDE
IATA: BDE
Category: Medium
Scheduled Services: No

Elevation: 1086 ft
TransAlt. 18000 ft.

Airport Communications:
ASOS:126.775
PRINCETON RDO:122.4
CTAF/UNICOM:122.8

KBDE Zoom In..

If you have problems with the map follow the link
https://www.worldairports.se/pages/airport.php?
ICAO=KBDE

Runways:

(A) RW 12 length 5499 ft width 100 ft
---- / hdg 117

(B) RW 30 length 5499 ft width 100 ft
ILS 108.30 / hdg 297

Location; KBDE
Day. 16 / Time. 10.53 Zulu
* Altimeter: 29.95
* Temperature: -07° c. -19.4°f.
* Wind from: 300° Speed 13 kn.
Dewpoint: -09° c.
Visibility: 10 Statute Miles.
Clouds: Overcast 1400 ft.

KBDE 161053Z AUTO 30013KT 10SM OVC014 M07/M09 A2995 RMK AO2 SLP162 T10721094 $


Wind From 300°
Speed 13 kn.

 
 
jpsmedia.com for Web Design worldairports.se 2018   terms of use